Taos, NM

11:20 AM MDT on March 28, 2017 (GMT -0600)
Taos Municipal

Weather History for KSKX - November, 2012

Change the Weather History Date:

Sunday, November 25, 2012

  Actual Average Record
Temperature  
Mean Temperature 36 °F -  
Max Temperature 57 °F 44 °F 57 °F (1997)
Min Temperature 14 °F 15 °F 0 °F (2007)
Degree Days  
Heating Degree Days 30    
Moisture  
Dew Point 9 °F    
Average Humidity 40    
Maximum Humidity 73    
Minimum Humidity 16    
Precipitation  
Precipitation 0.00 in - - ()
Sea Level Pressure  
Sea Level Pressure 30.10 in    
Wind  
Wind Speed 6 mph (NW)    
Max Wind Speed 17 mph    
Max Gust Speed 22 mph    
Visibility 10 miles    
Events      
Averages and records for this station are not official NWS values.
T = Trace of Precipitation, MM = Missing Value Source: NWS Daily Summary

Daily Weather History Graph

Daily Weather History Graph

Search for Another Location

Airport or City:

Trip Planner

Search our weather history database for the weather conditions in past years. The results will help you decide how hot, cold, wet, or windy it might be!

Date:

Astronomy

Nov. 25, 2012 Rise Set
Actual Time 6:50 AM MST 4:48 PM MST
Civil Twilight 6:22 AM MST 5:16 PM MST
Nautical Twilight 5:51 AM MST 5:48 PM MST
Astronomical Twilight 5:20 AM MST 6:19 PM MST
Moon 3:04 PM MST (11/25) 4:10 AM MST (11/25)
Length of Visible Light 10h 54m
Length of Day
9h 58m
Waxing Gibbous, 93% of the Moon is Illuminated
Nov 25
Waxing Gibbous
Nov 28
Full
Dec 6
Last Quarter
Dec 13
New
Dec 19
First Quarter

Hourly Weather History & Observations

Time (MST) Temp. Windchill Dew Point Humidity Pressure Visibility Wind Dir Wind Speed Gust Speed Precip Events Conditions
12:15 AM 23.0 °F 17.0 °F 8.6 °F 54% 30.17 in 10.0 mi NNE 4.6 mph - N/A   Clear
12:35 AM 21.2 °F 13.6 °F 8.6 °F 58% 30.17 in 10.0 mi North 5.8 mph - N/A   Clear
12:55 AM 19.4 °F 9.5 °F 6.8 °F 58% 30.17 in 10.0 mi North 8.1 mph - N/A   Clear
1:35 AM 21.2 °F 12.6 °F 8.6 °F 58% 30.17 in 10.0 mi North 6.9 mph - N/A   Clear
1:55 AM 19.4 °F 9.5 °F 6.8 °F 58% 30.17 in 10.0 mi North 8.1 mph - N/A   Clear
2:15 AM 17.6 °F 6.4 °F 5.0 °F 58% 30.17 in 10.0 mi North 9.2 mph - N/A   Clear
2:35 AM 19.4 °F 9.5 °F 6.8 °F 58% 30.17 in 10.0 mi North 8.1 mph - N/A   Clear
2:55 AM 19.4 °F 10.4 °F 6.8 °F 58% 30.17 in 10.0 mi NNE 6.9 mph - N/A   Clear
3:15 AM 17.6 °F 6.4 °F 6.8 °F 63% 30.17 in 10.0 mi North 9.2 mph - N/A   Clear
3:35 AM 17.6 °F 8.2 °F 6.8 °F 63% 30.16 in 10.0 mi North 6.9 mph - N/A   Clear
3:55 AM 17.6 °F 10.7 °F 6.8 °F 63% 30.15 in 10.0 mi North 4.6 mph - N/A   Clear
4:15 AM 19.4 °F 11.5 °F 6.8 °F 58% 30.16 in 10.0 mi NNE 5.8 mph - N/A   Clear
4:35 AM 17.6 °F 9.3 °F 6.8 °F 63% 30.15 in 10.0 mi North 5.8 mph - N/A   Clear
4:55 AM 17.6 °F 10.7 °F 8.6 °F 68% 30.15 in 10.0 mi North 4.6 mph - N/A   Clear
5:15 AM 23.0 °F 17.0 °F 12.2 °F 63% 30.15 in 10.0 mi North 4.6 mph - N/A   Clear
5:35 AM 17.6 °F 9.3 °F 6.8 °F 63% 30.15 in 10.0 mi North 5.8 mph - N/A   Clear
5:55 AM 15.8 °F 5.1 °F 5.0 °F 62% 30.15 in 10.0 mi North 8.1 mph - N/A   Clear
6:15 AM 15.8 °F 5.1 °F 6.8 °F 68% 30.15 in 10.0 mi NNE 8.1 mph - N/A   Clear
6:35 AM 15.8 °F 6.1 °F 6.8 °F 68% 30.15 in 10.0 mi North 6.9 mph - N/A   Clear
6:55 AM 14.0 °F 3.9 °F 3.2 °F 62% 30.16 in 10.0 mi North 6.9 mph - N/A   Clear
7:15 AM 14.0 °F 3.9 °F 6.8 °F 73% 30.16 in 10.0 mi North 6.9 mph - N/A   Clear
7:35 AM 19.4 °F 12.8 °F 8.6 °F 63% 30.16 in 10.0 mi North 4.6 mph - N/A   Clear
7:55 AM 21.2 °F 16.4 °F 10.4 °F 63% 30.17 in 10.0 mi North 3.5 mph - N/A   Clear
8:15 AM 24.8 °F 20.5 °F 12.2 °F 59% 30.17 in 10.0 mi North 3.5 mph - N/A   Clear
8:35 AM 28.4 °F 24.6 °F 12.2 °F 51% 30.17 in 10.0 mi North 3.5 mph - N/A   Clear
8:55 AM 33.8 °F - 14.0 °F 44% 30.17 in 10.0 mi Calm Calm - N/A   Clear
9:15 AM 35.6 °F - 15.8 °F 44% 30.16 in 10.0 mi Calm Calm - N/A   Clear
9:35 AM 37.4 °F - 15.8 °F 41% 30.16 in 10.0 mi Calm Calm - N/A   Clear
9:55 AM 42.8 °F - 17.6 °F 36% 30.15 in 10.0 mi Calm Calm - N/A   Clear
10:15 AM 44.6 °F - 17.6 °F 34% 30.14 in 10.0 mi Calm Calm - N/A   Clear
10:35 AM 46.4 °F 45.2 °F 17.6 °F 32% 30.13 in 10.0 mi West 3.5 mph - N/A   Clear
10:55 AM 48.2 °F - 15.8 °F 27% 30.13 in 10.0 mi WSW 8.1 mph - N/A   Clear
11:15 AM 48.2 °F - 15.8 °F 27% 30.11 in 10.0 mi WSW 6.9 mph - N/A   Clear
11:35 AM 50.0 °F - 15.8 °F 26% 30.10 in 10.0 mi SW 6.9 mph - N/A   Clear
11:55 AM 51.8 °F - 15.8 °F 24% 30.08 in 10.0 mi SW 6.9 mph - N/A   Clear
12:15 PM 53.6 °F - 15.8 °F 22% 30.07 in 10.0 mi West 11.5 mph - N/A   Clear
12:35 PM 55.4 °F - 15.8 °F 21% 30.06 in 10.0 mi SSW 11.5 mph - N/A   Clear
12:55 PM 55.4 °F - 15.8 °F 21% 30.05 in 10.0 mi SW 9.2 mph 17.3 mph N/A   Clear
1:15 PM 55.4 °F - 15.8 °F 21% 30.03 in 10.0 mi WSW 15.0 mph - N/A   Clear
1:35 PM 57.2 °F - 15.8 °F 20% 30.02 in 10.0 mi SW 17.3 mph 20.7 mph N/A   Clear
1:55 PM 57.2 °F - 15.8 °F 20% 30.02 in 10.0 mi West 12.7 mph 18.4 mph N/A   Clear
2:15 PM 57.2 °F - 14.0 °F 18% 30.01 in 10.0 mi WSW 15.0 mph 20.7 mph N/A   Clear
2:35 PM 57.2 °F - 12.2 °F 17% 30.01 in 10.0 mi SW 17.3 mph 21.9 mph N/A   Clear
2:55 PM 57.2 °F - 14.0 °F 18% 30.00 in 10.0 mi West 15.0 mph 21.9 mph N/A   Clear
3:15 PM 57.2 °F - 10.4 °F 16% 30.01 in 10.0 mi West 13.8 mph 19.6 mph N/A   Clear
3:35 PM 57.2 °F - 10.4 °F 16% 30.01 in 10.0 mi West 15.0 mph 19.6 mph N/A   Clear
3:55 PM 55.4 °F - 10.4 °F 17% 30.01 in 10.0 mi West 9.2 mph - N/A   Clear
4:15 PM 55.4 °F - 10.4 °F 17% 30.01 in 10.0 mi West 10.4 mph - N/A   Clear
4:35 PM 51.8 °F - 8.6 °F 18% 30.01 in 10.0 mi West 10.4 mph - N/A   Clear
4:55 PM 48.2 °F - 6.8 °F 19% 30.01 in 10.0 mi West 10.4 mph - N/A   Clear
5:15 PM 44.6 °F 39.2 °F 6.8 °F 21% 30.02 in 10.0 mi West 10.4 mph - N/A   Clear
5:35 PM 42.8 °F 37.0 °F 5.0 °F 21% 30.03 in 10.0 mi West 10.4 mph - N/A   Clear
5:55 PM 39.2 °F 34.2 °F 5.0 °F 24% 30.03 in 10.0 mi West 6.9 mph - N/A   Clear
6:15 PM 44.6 °F 42.2 °F 8.6 °F 23% 30.03 in 10.0 mi West 4.6 mph - N/A   Clear
6:35 PM 41.0 °F 39.0 °F 6.8 °F 24% 30.03 in 10.0 mi West 3.5 mph - N/A   Clear
6:55 PM 39.2 °F - 6.8 °F 26% 30.04 in 10.0 mi Calm Calm - N/A   Clear
7:15 PM 42.8 °F - 8.6 °F 25% 30.04 in 10.0 mi Calm Calm - N/A   Clear
7:35 PM 41.0 °F 37.1 °F 6.8 °F 24% 30.05 in 10.0 mi SW 5.8 mph - N/A   Clear
7:55 PM 42.8 °F 39.3 °F 8.6 °F 25% 30.05 in 10.0 mi WSW 5.8 mph - N/A   Clear
8:15 PM 28.4 °F - -0.4 °F 29% 30.05 in 10.0 mi Calm Calm - N/A   Clear
8:35 PM 30.2 °F 24.3 °F 5.0 °F 34% 30.05 in 10.0 mi ENE 5.8 mph - N/A   Clear
8:55 PM 28.4 °F 20.4 °F 6.8 °F 40% 30.05 in 10.0 mi ENE 8.1 mph - N/A   Clear
9:15 PM 30.2 °F 26.7 °F 8.6 °F 40% 30.06 in 10.0 mi NE 3.5 mph - N/A   Clear
9:35 PM 28.4 °F 24.6 °F 6.8 °F 40% 30.06 in 10.0 mi NE 3.5 mph - N/A   Clear
9:55 PM 24.8 °F - 3.2 °F 40% 30.06 in 10.0 mi Calm Calm - N/A   Clear
10:15 PM 24.8 °F 16.9 °F 6.8 °F 46% 30.06 in 10.0 mi NNW 6.9 mph - N/A   Clear
10:35 PM 26.6 °F 21.2 °F 3.2 °F 37% 30.06 in 10.0 mi NNE 4.6 mph - N/A   Clear
10:55 PM 26.6 °F - 6.8 °F 43% 30.07 in 10.0 mi Calm Calm - N/A   Clear
11:15 PM 21.2 °F - 1.4 °F 42% 30.07 in 10.0 mi Calm Calm - N/A   Clear
11:35 PM 23.0 °F - 3.2 °F 43% 30.07 in 10.0 mi Calm Calm - N/A   Clear
11:55 PM 24.8 °F - 6.8 °F 46% 30.07 in 10.0 mi Calm Calm - N/A   Clear